Time;durP1;ratioP1;P1;durP2;ratioP2;P2;SDS_P1;SDS_P2;PMS_P1;PMS_P2;Temp;Humidity;BMP_temperature;BMP_pressure;BME280_temperature;BME280_humidity;BME280_pressure;Samples;Min_cycle;Max_cycle;Signal;HPM_P1;HPM_P2
2023/06/26 00:00:24;;;;;;;8.13;7.33;;;26.30;59.30;;;;;;6268515;22;20228;-68
2023/06/26 00:02:50;;;;;;;8.97;8.07;;;26.40;59.30;;;;;;6267310;22;20459;-67
2023/06/26 00:05:15;;;;;;;9.90;8.70;;;26.40;59.20;;;;;;6266511;22;20146;-67
2023/06/26 00:07:41;;;;;;;8.67;7.87;;;26.30;59.40;;;;;;6265555;22;20147;-68
2023/06/26 00:10:07;;;;;;;9.07;8.20;;;26.30;59.40;;;;;;6267166;22;20269;-68
2023/06/26 00:12:32;;;;;;;8.60;7.77;;;26.30;59.40;;;;;;6269396;22;20174;-67
2023/06/26 00:14:58;;;;;;;8.90;8.00;;;26.20;59.60;;;;;;6266502;22;20595;-67
2023/06/26 00:17:24;;;;;;;10.13;9.13;;;26.10;59.80;;;;;;6268051;22;20150;-67
2023/06/26 00:19:50;;;;;;;11.50;8.50;;;26.10;60.20;;;;;;6267871;22;20425;-67
2023/06/26 00:22:15;;;;;;;8.50;7.70;;;26.00;60.60;;;;;;6239828;22;20244;-67
2023/06/26 00:24:41;;;;;;;9.30;8.40;;;25.90;60.60;;;;;;6268753;22;20373;-67
2023/06/26 00:27:07;;;;;;;9.07;8.17;;;25.90;60.90;;;;;;6266688;22;20158;-68
2023/06/26 00:29:32;;;;;;;11.33;9.30;;;25.90;61.00;;;;;;6269044;22;20174;-68
2023/06/26 00:31:58;;;;;;;9.60;8.70;;;25.90;61.20;;;;;;6263693;22;20158;-67
2023/06/26 00:34:24;;;;;;;10.40;9.03;;;25.70;61.60;;;;;;6268032;22;20159;-68
2023/06/26 00:36:49;;;;;;;12.40;9.63;;;25.60;62.20;;;;;;6268977;22;20154;-68
2023/06/26 00:39:15;;;;;;;8.70;7.87;;;25.60;62.40;;;;;;6268137;22;20182;-68
2023/06/26 00:41:41;;;;;;;10.27;9.27;;;25.60;62.30;;;;;;6267677;22;20151;-67
2023/06/26 00:44:06;;;;;;;10.00;8.77;;;25.60;62.50;;;;;;6267514;22;20250;-67
2023/06/26 00:46:34;;;;;;;9.90;8.90;;;25.60;62.20;;;;;;6268301;22;20153;-67
2023/06/26 00:49:01;;;;;;;9.20;8.30;;;25.40;62.70;;;;;;6266515;22;20174;-67
2023/06/26 00:51:29;;;;;;;9.77;8.77;;;25.30;63.10;;;;;;6268875;22;20689;-68
2023/06/26 00:53:55;;;;;;;11.07;9.17;;;25.20;63.60;;;;;;6268809;22;20377;-67
2023/06/26 00:56:20;;;;;;;9.93;8.67;;;25.00;64.10;;;;;;6267762;22;21007;-67
2023/06/26 00:58:46;;;;;;;8.83;8.00;;;24.90;64.40;;;;;;6267137;22;20471;-67
2023/06/26 01:01:17;;;;;;;10.03;9.03;;;24.70;65.00;;;;;;6265990;22;20193;-67
2023/06/26 01:03:51;;;;;;;10.67;9.13;;;24.80;65.10;;;;;;6267868;22;20200;-67
2023/06/26 01:06:18;;;;;;;9.83;8.90;;;24.80;64.90;;;;;;6267764;22;20873;-67
2023/06/26 01:08:45;;;;;;;9.30;8.40;;;24.80;64.90;;;;;;6267439;22;20864;-67
2023/06/26 01:11:11;;;;;;;10.70;9.60;;;24.70;65.00;;;;;;6268336;22;20384;-67
2023/06/26 01:13:38;;;;;;;9.30;8.40;;;24.70;65.00;;;;;;6267396;22;20718;-67
2023/06/26 01:16:05;;;;;;;10.20;9.07;;;24.60;65.10;;;;;;6267244;22;20392;-67
2023/06/26 01:18:32;;;;;;;10.30;9.20;;;24.50;65.50;;;;;;6267827;22;20421;-67
2023/06/26 01:21:01;;;;;;;9.77;8.77;;;24.50;65.70;;;;;;6267330;22;20664;-67
2023/06/26 01:23:49;;;;;;;9.83;8.80;;;24.50;66.00;;;;;;6267911;22;20878;-67
2023/06/26 01:26:20;;;;;;;8.70;7.80;;;24.50;65.80;;;;;;6265388;22;21054;-67
2023/06/26 01:28:47;;;;;;;11.13;9.60;;;24.50;65.70;;;;;;6267636;22;20476;-67
2023/06/26 01:31:13;;;;;;;9.60;8.70;;;24.40;65.30;;;;;;6267004;22;20494;-67
2023/06/26 01:33:41;;;;;;;9.47;8.60;;;24.30;65.50;;;;;;6267948;22;20376;-67
2023/06/26 01:36:07;;;;;;;9.10;8.20;;;24.40;65.50;;;;;;6267050;22;20849;-68
2023/06/26 01:38:34;;;;;;;7.90;7.20;;;24.40;65.10;;;;;;6266456;22;20432;-67
2023/06/26 01:41:00;;;;;;;9.17;8.27;;;24.40;65.30;;;;;;6267091;22;20397;-67
2023/06/26 01:43:31;;;;;;;9.43;8.43;;;24.30;65.10;;;;;;6268940;22;20373;-68
2023/06/26 01:46:05;;;;;;;9.33;8.43;;;24.30;65.40;;;;;;6271765;22;20169;-67
2023/06/26 01:48:40;;;;;;;9.60;8.50;;;24.10;64.80;;;;;;6270726;22;20725;-67
2023/06/26 01:51:07;;;;;;;10.30;7.57;;;24.00;65.20;;;;;;6270854;22;20979;-67
2023/06/26 01:53:44;;;;;;;8.87;7.90;;;24.00;65.30;;;;;;6271135;22;20373;-67
2023/06/26 01:56:15;;;;;;;9.40;8.50;;;24.00;65.80;;;;;;6269946;22;20391;-66
2023/06/26 01:58:45;;;;;;;8.50;7.70;;;24.00;65.80;;;;;;6270447;22;20434;-66
2023/06/26 02:01:11;;;;;;;9.97;8.50;;;24.00;66.30;;;;;;6268674;22;20392;-66
2023/06/26 02:03:36;;;;;;;8.60;7.80;;;24.00;66.20;;;;;;6271336;22;20400;-66
2023/06/26 02:06:02;;;;;;;9.43;8.43;;;24.10;67.00;;;;;;6243368;22;20472;-66
2023/06/26 02:08:27;;;;;;;9.63;7.17;;;24.10;65.90;;;;;;6271395;22;20170;-66
2023/06/26 02:10:53;;;;;;;8.80;8.00;;;24.20;66.00;;;;;;6269843;22;20546;-66
2023/06/26 02:13:19;;;;;;;9.40;8.50;;;24.20;66.20;;;;;;6271364;22;20161;-66
2023/06/26 02:15:44;;;;;;;10.00;9.00;;;24.20;66.20;;;;;;6271115;22;20262;-66
2023/06/26 02:18:10;;;;;;;9.27;8.37;;;24.00;66.50;;;;;;6269833;22;20515;-66
2023/06/26 02:20:35;;;;;;;8.60;7.70;;;23.90;66.60;;;;;;6270636;22;20173;-66
2023/06/26 02:23:01;;;;;;;9.10;8.20;;;23.90;66.80;;;;;;6269908;22;20146;-66
2023/06/26 02:25:26;;;;;;;9.87;8.93;;;23.90;66.80;;;;;;6270374;22;20813;-66
2023/06/26 02:27:52;;;;;;;9.90;8.80;;;24.00;66.80;;;;;;6271364;22;20194;-66
2023/06/26 02:30:18;;;;;;;8.73;7.93;;;24.00;66.80;;;;;;6270555;22;20609;-66
2023/06/26 02:32:43;;;;;;;10.07;8.90;;;24.00;66.80;;;;;;6270231;22;20181;-66
2023/06/26 02:35:09;;;;;;;10.70;8.60;;;24.00;66.80;;;;;;6269518;22;20234;-66
2023/06/26 02:37:34;;;;;;;9.57;8.47;;;24.00;66.90;;;;;;6270170;22;20150;-66
2023/06/26 02:40:00;;;;;;;10.33;8.63;;;23.90;66.60;;;;;;6270281;22;20621;-66
2023/06/26 02:42:25;;;;;;;9.33;8.37;;;23.90;66.60;;;;;;6271622;22;20286;-67
2023/06/26 02:44:51;;;;;;;13.23;9.37;;;23.90;66.70;;;;;;6271117;22;20142;-66
2023/06/26 02:47:17;;;;;;;12.07;8.90;;;23.80;66.90;;;;;;6269724;22;20741;-66
2023/06/26 02:49:42;;;;;;;8.50;7.70;;;23.80;67.20;;;;;;6271006;22;20397;-66
2023/06/26 02:52:08;;;;;;;9.30;8.30;;;23.70;67.00;;;;;;6242955;22;20245;-67
2023/06/26 02:54:33;;;;;;;9.83;8.83;;;23.70;67.00;;;;;;6268343;22;20556;-66
2023/06/26 02:56:59;;;;;;;8.97;8.07;;;23.60;67.30;;;;;;6269949;22;20441;-66
2023/06/26 02:59:25;;;;;;;10.23;8.60;;;23.60;67.70;;;;;;6267865;22;20178;-66
2023/06/26 03:01:51;;;;;;;11.00;9.90;;;23.50;68.30;;;;;;6268778;22;20231;-66
2023/06/26 03:04:17;;;;;;;10.43;8.53;;;23.50;68.80;;;;;;6267401;22;20373;-67
2023/06/26 03:06:43;;;;;;;15.30;8.93;;;23.50;68.40;;;;;;6269111;22;20204;-66
2023/06/26 03:09:09;;;;;;;9.53;8.60;;;23.50;68.50;;;;;;6268382;22;20386;-66
2023/06/26 03:11:34;;;;;;;9.73;8.83;;;23.50;68.40;;;;;;6269528;22;20174;-66
2023/06/26 03:14:00;;;;;;;11.10;9.50;;;23.40;68.50;;;;;;6266914;22;20208;-66
2023/06/26 03:16:25;;;;;;;11.40;10.23;;;23.20;68.90;;;;;;6269402;22;20180;-66
2023/06/26 03:18:51;;;;;;;10.13;9.13;;;23.30;69.10;;;;;;6268890;22;20182;-66
2023/06/26 03:21:17;;;;;;;9.87;8.87;;;23.20;69.20;;;;;;6268067;22;20226;-66
2023/06/26 03:23:42;;;;;;;10.40;9.30;;;23.10;70.00;;;;;;6267496;22;20142;-67
2023/06/26 03:26:08;;;;;;;11.33;9.67;;;23.10;70.00;;;;;;6267789;22;20377;-66
2023/06/26 03:28:34;;;;;;;11.57;9.53;;;23.10;70.30;;;;;;6268380;22;20166;-66
2023/06/26 03:30:59;;;;;;;11.80;10.30;;;23.10;70.80;;;;;;6268524;22;20159;-66
2023/06/26 03:33:25;;;;;;;11.40;10.00;;;23.10;70.90;;;;;;6268865;22;20147;-66
2023/06/26 03:35:50;;;;;;;10.77;8.83;;;23.10;71.00;;;;;;6267122;22;20158;-66
2023/06/26 03:38:16;;;;;;;9.70;8.80;;;23.00;71.30;;;;;;6266770;22;20501;-66
2023/06/26 03:40:41;;;;;;;10.90;9.80;;;22.90;72.10;;;;;;6268050;22;20151;-66
2023/06/26 03:43:07;;;;;;;9.67;8.67;;;22.90;72.20;;;;;;6265676;22;20567;-66
2023/06/26 03:45:41;;;;;;;10.27;9.27;;;23.00;71.60;;;;;;6268045;22;20157;-66
2023/06/26 03:48:09;;;;;;;11.10;9.90;;;23.00;71.70;;;;;;6267610;22;20515;-66
2023/06/26 03:50:35;;;;;;;11.37;9.70;;;22.90;71.50;;;;;;6267855;22;20430;-66
2023/06/26 03:53:00;;;;;;;9.37;7.80;;;23.00;71.90;;;;;;6267197;22;20491;-66
2023/06/26 03:55:26;;;;;;;9.83;8.83;;;23.00;71.80;;;;;;6267964;22;20200;-66
2023/06/26 03:57:51;;;;;;;10.70;9.37;;;23.00;71.50;;;;;;6268024;22;20176;-66
2023/06/26 04:00:17;;;;;;;10.60;9.50;;;23.10;71.60;;;;;;6266211;22;20719;-66
2023/06/26 04:02:43;;;;;;;11.27;9.00;;;23.00;72.10;;;;;;6268847;22;20233;-66
2023/06/26 04:05:08;;;;;;;10.80;9.33;;;22.90;72.40;;;;;;6267889;22;20516;-66
2023/06/26 04:07:35;;;;;;;12.80;11.03;;;22.80;72.90;;;;;;6266964;22;20165;-66
2023/06/26 04:10:01;;;;;;;11.20;10.00;;;22.80;72.90;;;;;;6268126;22;20173;-66
2023/06/26 04:12:27;;;;;;;10.20;9.13;;;22.90;72.70;;;;;;6267587;22;20369;-66
2023/06/26 04:14:52;;;;;;;13.70;10.50;;;22.90;72.40;;;;;;6266430;22;20150;-66
2023/06/26 04:17:18;;;;;;;10.77;9.67;;;22.70;73.70;;;;;;6266646;22;20447;-66
2023/06/26 04:19:44;;;;;;;11.67;10.23;;;22.60;73.70;;;;;;6268623;22;20568;-66
2023/06/26 04:22:09;;;;;;;11.40;10.30;;;22.60;74.10;;;;;;6268240;22;20558;-67
2023/06/26 04:24:35;;;;;;;10.83;9.70;;;22.60;74.00;;;;;;6266722;22;20150;-66
2023/06/26 04:27:00;;;;;;;12.10;9.57;;;22.60;74.30;;;;;;6266967;22;20151;-66
2023/06/26 04:29:27;;;;;;;10.43;9.40;;;22.70;74.50;;;;;;6267943;22;20208;-66
2023/06/26 04:31:57;;;;;;;9.90;8.97;;;22.70;75.50;;;;;;6267344;22;20200;-68
2023/06/26 04:34:26;;;;;;;10.63;9.17;;;22.70;74.50;;;;;;6267066;22;20736;-66
2023/06/26 04:36:52;;;;;;;9.80;8.90;;;22.70;73.90;;;;;;6267443;22;20381;-67
2023/06/26 04:39:18;;;;;;;9.40;8.40;;;22.80;73.50;;;;;;6266596;22;20839;-67
2023/06/26 04:41:44;;;;;;;10.30;9.03;;;22.90;73.60;;;;;;6268641;22;20143;-66
2023/06/26 04:44:10;;;;;;;11.47;9.70;;;22.80;73.00;;;;;;6266517;22;20155;-67
2023/06/26 04:46:40;;;;;;;11.20;9.63;;;22.80;73.00;;;;;;6267042;22;20451;-67
2023/06/26 04:49:09;;;;;;;10.17;9.17;;;22.80;73.20;;;;;;6266908;22;20212;-67
2023/06/26 04:51:40;;;;;;;10.80;9.27;;;22.70;73.90;;;;;;6266960;22;20435;-67
2023/06/26 04:54:06;;;;;;;9.13;8.23;;;22.60;74.70;;;;;;6268100;22;20357;-67
2023/06/26 04:56:32;;;;;;;11.20;10.17;;;22.70;75.20;;;;;;6267708;22;20378;-67
2023/06/26 04:58:57;;;;;;;10.63;9.53;;;22.80;75.20;;;;;;6240230;22;20523;-66
2023/06/26 05:01:23;;;;;;;11.97;10.77;;;22.80;75.70;;;;;;6265610;22;20240;-67
2023/06/26 05:03:49;;;;;;;10.57;9.57;;;22.80;76.00;;;;;;6266706;22;20673;-67
2023/06/26 05:06:14;;;;;;;10.60;9.60;;;22.80;76.20;;;;;;6266742;22;20227;-67
2023/06/26 05:08:40;;;;;;;10.17;9.13;;;22.80;76.30;;;;;;6267587;22;20867;-67
2023/06/26 05:11:06;;;;;;;10.33;9.30;;;22.80;77.00;;;;;;6267529;22;20497;-67
2023/06/26 05:13:32;;;;;;;9.93;8.93;;;22.90;77.20;;;;;;6267119;22;20416;-67
2023/06/26 05:15:57;;;;;;;10.13;9.00;;;22.90;77.80;;;;;;6267138;22;20155;-67
2023/06/26 05:18:23;;;;;;;11.43;10.33;;;23.00;78.40;;;;;;6267340;22;20235;-67
2023/06/26 05:20:49;;;;;;;10.90;9.90;;;23.00;79.20;;;;;;6267892;22;20234;-67
2023/06/26 05:23:16;;;;;;;11.23;9.60;;;23.00;79.30;;;;;;6266832;22;20167;-66
2023/06/26 05:25:42;;;;;;;10.90;9.80;;;23.00;79.80;;;;;;6266854;22;20147;-66
2023/06/26 05:28:10;;;;;;;10.70;9.60;;;23.10;80.30;;;;;;6267482;22;20396;-67
2023/06/26 05:30:36;;;;;;;11.00;9.80;;;23.20;80.50;;;;;;6267616;22;20221;-67
2023/06/26 05:33:03;;;;;;;11.00;9.47;;;23.20;81.10;;;;;;6267242;22;20452;-67
2023/06/26 05:35:30;;;;;;;12.83;10.20;;;23.30;81.20;;;;;;6267239;22;20388;-67
2023/06/26 05:37:57;;;;;;;11.03;9.57;;;23.40;81.40;;;;;;6266055;22;20385;-67
2023/06/26 05:40:23;;;;;;;10.90;9.90;;;23.50;81.70;;;;;;6267395;22;20401;-67
2023/06/26 05:42:49;;;;;;;11.90;10.23;;;23.50;82.00;;;;;;6239651;22;20471;-67
2023/06/26 05:45:15;;;;;;;11.97;10.27;;;23.40;82.20;;;;;;6266913;22;20397;-67
2023/06/26 05:47:41;;;;;;;11.97;10.03;;;23.40;82.10;;;;;;6266003;22;20184;-67
2023/06/26 05:50:09;;;;;;;11.33;10.10;;;23.40;82.50;;;;;;6267218;22;20169;-67
2023/06/26 05:52:35;;;;;;;9.80;8.80;;;23.40;82.50;;;;;;6267138;22;20373;-67
2023/06/26 05:55:02;;;;;;;11.80;9.83;;;23.40;83.00;;;;;;6267618;22;20377;-67
2023/06/26 05:57:29;;;;;;;16.23;10.50;;;23.50;83.40;;;;;;6265834;22;20468;-67
2023/06/26 05:59:55;;;;;;;12.80;9.50;;;23.40;83.70;;;;;;6267194;22;20906;-67
2023/06/26 06:02:21;;;;;;;11.07;9.87;;;23.50;83.90;;;;;;6267620;22;20373;-67
2023/06/26 06:04:47;;;;;;;10.53;9.43;;;23.50;84.90;;;;;;6266149;22;20770;-67
2023/06/26 06:07:12;;;;;;;10.53;9.30;;;23.40;84.40;;;;;;6266985;22;20226;-67
2023/06/26 06:09:38;;;;;;;12.20;10.00;;;23.50;84.00;;;;;;6267075;22;20640;-67
2023/06/26 06:12:08;;;;;;;9.77;8.70;;;23.60;83.80;;;;;;6267181;22;20587;-67
2023/06/26 06:14:34;;;;;;;11.37;9.73;;;23.70;84.10;;;;;;6265263;22;20222;-67
2023/06/26 06:17:00;;;;;;;10.43;9.37;;;23.80;83.30;;;;;;6266193;22;20377;-67
2023/06/26 06:19:26;;;;;;;11.50;8.67;;;23.80;83.40;;;;;;6266859;22;20420;-67
2023/06/26 06:21:51;;;;;;;11.20;8.63;;;23.90;83.10;;;;;;6268285;22;20396;-67
2023/06/26 06:24:17;;;;;;;10.80;9.73;;;23.90;83.10;;;;;;6266653;22;20257;-67
2023/06/26 06:26:43;;;;;;;10.10;9.10;;;24.00;83.30;;;;;;6267229;22;20158;-67
2023/06/26 06:29:09;;;;;;;12.97;8.90;;;24.10;83.30;;;;;;6266883;22;20253;-67
2023/06/26 06:31:34;;;;;;;10.77;9.47;;;24.10;83.40;;;;;;6268195;22;20472;-67
2023/06/26 06:34:00;;;;;;;11.27;8.97;;;24.20;83.50;;;;;;6268035;22;20157;-67
2023/06/26 06:36:26;;;;;;;10.07;8.33;;;24.30;83.40;;;;;;6267195;22;20181;-67
2023/06/26 06:38:51;;;;;;;9.50;8.60;;;24.30;83.10;;;;;;6268542;22;20174;-67
2023/06/26 06:41:17;;;;;;;11.30;9.43;;;24.30;82.90;;;;;;6269292;22;20154;-67
2023/06/26 06:43:43;;;;;;;11.27;8.43;;;24.50;83.10;;;;;;6267626;22;20151;-67
2023/06/26 06:46:08;;;;;;;10.50;9.50;;;24.60;82.30;;;;;;6268677;22;20153;-67
2023/06/26 06:48:34;;;;;;;10.10;8.10;;;24.70;82.50;;;;;;6268646;22;20171;-66
2023/06/26 06:51:00;;;;;;;13.30;9.03;;;24.90;82.10;;;;;;6269253;22;20590;-67
2023/06/26 06:53:25;;;;;;;13.53;8.90;;;25.00;81.60;;;;;;6268647;22;20192;-67
2023/06/26 06:55:51;;;;;;;9.93;9.03;;;25.00;82.80;;;;;;6268497;22;20200;-67
2023/06/26 06:58:19;;;;;;;11.40;8.90;;;25.10;82.00;;;;;;6268951;22;20185;-67
2023/06/26 07:00:44;;;;;;;10.20;9.20;;;25.20;81.70;;;;;;6269090;22;20166;-67
2023/06/26 07:03:10;;;;;;;9.03;8.23;;;25.30;81.40;;;;;;6269050;22;20466;-67
2023/06/26 07:05:36;;;;;;;12.17;9.17;;;25.30;80.80;;;;;;6268246;22;20599;-67
2023/06/26 07:08:02;;;;;;;9.90;8.30;;;25.40;80.30;;;;;;6269757;22;20224;-67
2023/06/26 07:10:28;;;;;;;9.63;7.83;;;25.50;80.20;;;;;;6267470;22;21156;-67
2023/06/26 07:12:54;;;;;;;9.63;8.73;;;25.50;79.80;;;;;;6269405;22;20373;-67
2023/06/26 07:15:20;;;;;;;9.47;8.23;;;25.60;79.40;;;;;;6268824;22;20371;-67
2023/06/26 07:17:45;;;;;;;9.10;8.20;;;25.70;78.50;;;;;;6269353;22;20147;-68
2023/06/26 07:20:15;;;;;;;9.50;8.63;;;25.80;78.00;;;;;;6267733;22;20709;-67
2023/06/26 07:22:41;;;;;;;8.90;8.00;;;25.80;76.50;;;;;;6267671;22;20622;-68
2023/06/26 07:25:09;;;;;;;9.10;8.30;;;25.90;75.90;;;;;;6269393;22;20369;-67
2023/06/26 07:27:38;;;;;;;8.23;7.47;;;26.00;75.20;;;;;;6240553;22;20378;-67
2023/06/26 07:30:04;;;;;;;9.07;8.27;;;26.00;75.00;;;;;;6268639;22;20378;-67
2023/06/26 07:32:30;;;;;;;8.10;7.30;;;26.10;74.70;;;;;;6269421;22;20374;-67
2023/06/26 07:34:56;;;;;;;9.20;7.70;;;26.20;74.10;;;;;;6269168;22;20388;-67
2023/06/26 07:37:21;;;;;;;9.80;8.90;;;26.20;73.80;;;;;;6269397;22;20150;-67
2023/06/26 07:39:48;;;;;;;8.87;7.97;;;26.30;73.20;;;;;;6267411;22;20429;-67
2023/06/26 07:42:14;;;;;;;8.90;8.07;;;26.30;72.50;;;;;;6268869;22;20533;-67
2023/06/26 07:44:41;;;;;;;8.20;7.37;;;26.40;73.20;;;;;;6267593;22;20416;-67
2023/06/26 07:47:06;;;;;;;10.50;7.30;;;26.50;72.40;;;;;;6268205;22;20149;-67
2023/06/26 07:49:32;;;;;;;8.50;7.70;;;26.50;72.20;;;;;;6267085;22;20397;-67
2023/06/26 07:51:58;;;;;;;10.40;7.90;;;26.60;71.60;;;;;;6268592;22;20183;-67
2023/06/26 07:54:23;;;;;;;11.10;7.53;;;26.60;71.50;;;;;;6267523;22;20586;-67
2023/06/26 07:57:00;;;;;;;8.17;7.47;;;26.70;71.00;;;;;;6269201;22;20690;-67
2023/06/26 07:59:27;;;;;;;9.17;8.27;;;26.70;71.60;;;;;;6266640;22;20181;-67
2023/06/26 08:01:54;;;;;;;8.70;7.63;;;26.80;72.00;;;;;;6268286;22;20397;-67
2023/06/26 08:04:24;;;;;;;8.10;7.33;;;26.80;71.70;;;;;;6267664;22;20504;-67
2023/06/26 08:06:54;;;;;;;8.50;7.60;;;26.90;72.20;;;;;;6268853;22;20366;-67
2023/06/26 08:09:20;;;;;;;7.90;7.10;;;26.90;72.80;;;;;;6267708;22;20400;-67
2023/06/26 08:11:46;;;;;;;7.60;6.90;;;27.00;73.90;;;;;;6267964;22;20372;-67
2023/06/26 08:14:12;;;;;;;9.37;8.50;;;27.10;73.00;;;;;;6266707;22;20841;-67
2023/06/26 08:16:39;;;;;;;7.97;7.17;;;27.10;73.20;;;;;;6268588;22;20620;-67
2023/06/26 08:19:04;;;;;;;8.97;8.07;;;27.10;73.80;;;;;;6267848;22;20482;-67
2023/06/26 08:21:30;;;;;;;8.83;8.00;;;27.20;73.70;;;;;;6268369;22;21045;-67
2023/06/26 08:23:55;;;;;;;8.50;7.70;;;27.20;74.00;;;;;;6267730;22;20224;-67
2023/06/26 08:26:21;;;;;;;9.13;8.23;;;27.10;74.60;;;;;;6268592;22;20154;-67
2023/06/26 08:28:46;;;;;;;9.97;8.33;;;27.20;75.00;;;;;;6266873;22;20174;-67
2023/06/26 08:31:12;;;;;;;9.00;8.10;;;27.30;75.00;;;;;;6268391;22;20178;-67
2023/06/26 08:33:38;;;;;;;13.60;7.50;;;27.20;74.30;;;;;;6267927;22;20508;-67
2023/06/26 08:36:03;;;;;;;9.87;7.87;;;27.20;74.30;;;;;;6267999;22;20147;-67
2023/06/26 08:38:29;;;;;;;10.13;8.17;;;27.10;74.30;;;;;;6266481;22;20185;-67
2023/06/26 08:40:54;;;;;;;9.27;8.13;;;27.20;74.70;;;;;;6267743;22;20146;-67
2023/06/26 08:43:21;;;;;;;9.60;8.70;;;27.10;74.60;;;;;;6268197;22;20591;-67
2023/06/26 08:45:51;;;;;;;10.53;8.33;;;27.20;75.00;;;;;;6265794;22;20154;-67
2023/06/26 08:48:17;;;;;;;9.80;8.80;;;27.20;75.10;;;;;;6265972;22;20904;-67
2023/06/26 08:50:44;;;;;;;9.47;8.53;;;27.30;75.50;;;;;;6266182;22;20373;-67
2023/06/26 08:53:57;;;;;;;8.73;7.97;;;27.20;75.80;;;;;;6266788;22;20431;-67
2023/06/26 08:56:26;;;;;;;9.17;8.27;;;27.20;75.50;;;;;;6212934;22;20381;-67
2023/06/26 08:58:52;;;;;;;12.73;8.23;;;27.20;76.20;;;;;;6267831;22;20425;-67
2023/06/26 09:01:18;;;;;;;8.90;8.00;;;27.30;76.80;;;;;;6268173;22;20389;-67
2023/06/26 09:03:44;;;;;;;8.53;7.73;;;27.30;76.80;;;;;;6267549;22;20749;-67
2023/06/26 09:06:10;;;;;;;8.50;7.70;;;27.40;76.00;;;;;;6266489;22;20378;-67
2023/06/26 09:08:36;;;;;;;8.50;7.47;;;27.50;76.10;;;;;;6267829;22;20170;-67
2023/06/26 09:11:02;;;;;;;9.40;8.60;;;27.50;75.50;;;;;;6264967;22;20740;-66
2023/06/26 09:13:31;;;;;;;8.20;7.20;;;27.50;75.10;;;;;;6268475;22;20154;-66
2023/06/26 09:15:57;;;;;;;8.93;8.13;;;27.60;75.30;;;;;;6266841;22;20982;-67
2023/06/26 09:18:22;;;;;;;18.03;7.47;;;27.70;75.00;;;;;;6267027;22;20421;-66
2023/06/26 09:20:49;;;;;;;9.20;8.30;;;27.60;75.20;;;;;;6266374;22;20150;-67
2023/06/26 09:23:14;;;;;;;9.20;7.90;;;27.70;75.70;;;;;;6267883;22;20154;-67
2023/06/26 09:25:41;;;;;;;11.33;7.83;;;27.70;75.60;;;;;;6266707;22;20709;-66
2023/06/26 09:28:07;;;;;;;8.10;7.30;;;27.70;76.00;;;;;;6267774;22;20174;-67
2023/06/26 09:30:33;;;;;;;7.67;6.97;;;27.70;76.30;;;;;;6267771;22;20414;-67
2023/06/26 09:33:19;;;;;;;8.37;7.60;;;27.80;76.20;;;;;;6268475;22;20880;-67
2023/06/26 09:35:46;;;;;;;7.10;6.50;;;27.70;76.30;;;;;;6239500;22;20146;-67
2023/06/26 09:38:13;;;;;;;8.30;7.60;;;27.70;76.20;;;;;;6266441;22;20396;-67
2023/06/26 09:40:39;;;;;;;11.73;8.83;;;27.70;76.80;;;;;;6267002;22;20741;-66
2023/06/26 09:43:05;;;;;;;8.70;7.80;;;27.80;76.80;;;;;;6266259;22;20870;-67
2023/06/26 09:45:38;;;;;;;8.97;7.90;;;27.70;77.10;;;;;;6267473;22;20370;-67
2023/06/26 09:48:04;;;;;;;8.47;7.57;;;27.70;77.60;;;;;;6266813;22;20389;-67
2023/06/26 09:50:33;;;;;;;11.03;7.90;;;27.70;78.10;;;;;;6267007;22;20376;-66
2023/06/26 09:53:13;;;;;;;9.57;8.53;;;27.70;78.30;;;;;;6267443;22;20369;-66
2023/06/26 09:55:43;;;;;;;8.80;7.90;;;27.60;78.00;;;;;;6267402;22;20448;-67
2023/06/26 09:58:14;;;;;;;9.50;7.60;;;27.60;79.00;;;;;;6267043;22;20438;-67
2023/06/26 10:00:43;;;;;;;8.27;7.40;;;27.70;79.40;;;;;;6267931;22;20406;-67
2023/06/26 10:03:10;;;;;;;13.10;7.70;;;27.80;79.20;;;;;;6267821;22;20377;-66
2023/06/26 10:05:35;;;;;;;8.90;7.70;;;27.80;78.90;;;;;;6268080;22;20369;-67
2023/06/26 10:08:02;;;;;;;8.03;7.33;;;27.90;78.60;;;;;;6268849;22;20472;-67
2023/06/26 10:10:28;;;;;;;10.93;8.37;;;27.90;78.60;;;;;;6269514;22;20150;-68
2023/06/26 10:13:06;;;;;;;8.43;7.67;;;28.00;78.70;;;;;;6269969;22;20875;-68
2023/06/26 10:15:31;;;;;;;9.20;8.10;;;28.00;79.00;;;;;;6267257;22;20361;-68
2023/06/26 10:17:57;;;;;;;8.97;8.20;;;28.10;79.40;;;;;;6268357;22;20476;-68
2023/06/26 10:20:24;;;;;;;8.67;7.70;;;28.20;78.70;;;;;;6269105;22;20175;-68
2023/06/26 10:22:50;;;;;;;8.40;7.47;;;28.20;78.70;;;;;;6267165;22;20178;-68
2023/06/26 10:25:19;;;;;;;9.07;7.50;;;28.30;78.80;;;;;;6268851;22;20377;-68
2023/06/26 10:27:48;;;;;;;8.93;8.07;;;28.30;78.50;;;;;;6268014;22;20151;-68
2023/06/26 10:30:19;;;;;;;8.33;7.53;;;28.30;78.10;;;;;;6268591;22;20388;-68
2023/06/26 10:32:46;;;;;;;10.07;8.30;;;28.30;77.90;;;;;;6268969;22;20809;-68
2023/06/26 10:35:12;;;;;;;7.93;7.13;;;28.40;78.20;;;;;;6267479;22;20366;-68
2023/06/26 10:37:48;;;;;;;9.00;8.00;;;28.40;76.90;;;;;;6267878;22;20886;-67
2023/06/26 10:40:21;;;;;;;8.00;7.30;;;28.50;77.20;;;;;;6267939;22;20174;-68
2023/06/26 10:42:49;;;;;;;9.23;7.60;;;28.60;76.80;;;;;;6269441;22;20574;-68
2023/06/26 10:45:21;;;;;;;9.43;7.70;;;28.80;76.50;;;;;;6267970;22;20381;-68
2023/06/26 10:47:48;;;;;;;8.80;7.90;;;28.90;75.90;;;;;;6268945;22;20464;-68
2023/06/26 10:50:23;;;;;;;8.20;7.37;;;29.00;75.40;;;;;;6241519;22;20416;-69
2023/06/26 10:53:12;;;;;;;10.70;8.07;;;28.90;74.70;;;;;;6268986;22;20935;-67
2023/06/26 10:55:42;;;;;;;8.60;7.20;;;28.80;74.70;;;;;;6268881;22;20833;-67
2023/06/26 10:58:34;;;;;;;8.93;8.03;;;29.00;74.70;;;;;;6268260;22;20397;-67
2023/06/26 11:01:12;;;;;;;10.30;8.20;;;29.00;74.00;;;;;;6262881;22;20411;-67
2023/06/26 11:03:38;;;;;;;8.50;7.80;;;29.10;73.90;;;;;;6268944;22;20451;-67
2023/06/26 11:06:13;;;;;;;8.40;7.47;;;29.20;73.50;;;;;;6266690;22;20376;-67
2023/06/26 11:08:55;;;;;;;8.03;7.33;;;29.20;72.80;;;;;;6267624;22;20951;-67
2023/06/26 11:11:42;;;;;;;9.70;7.40;;;29.30;73.00;;;;;;6266555;22;20361;-67
2023/06/26 11:14:08;;;;;;;9.40;7.10;;;29.20;72.60;;;;;;6267082;22;20393;-67
2023/06/26 11:16:34;;;;;;;8.80;7.90;;;29.20;72.30;;;;;;6267937;22;20385;-67
2023/06/26 11:19:00;;;;;;;8.70;7.90;;;29.10;72.60;;;;;;6268854;22;20420;-67
2023/06/26 11:21:27;;;;;;;7.97;7.17;;;29.20;72.70;;;;;;6269169;22;20468;-67
2023/06/26 11:23:58;;;;;;;8.60;7.53;;;29.30;73.10;;;;;;6268444;22;20372;-67
2023/06/26 11:26:23;;;;;;;8.63;6.70;;;29.50;71.80;;;;;;6240635;22;20460;-67
2023/06/26 11:28:54;;;;;;;6.77;6.17;;;29.60;70.20;;;;;;6268414;22;20425;-67
2023/06/26 11:31:32;;;;;;;8.13;7.20;;;29.60;69.00;;;;;;6269979;22;20416;-67
2023/06/26 11:34:05;;;;;;;7.97;7.27;;;29.70;68.40;;;;;;6267612;22;20431;-67
2023/06/26 11:36:31;;;;;;;8.53;6.83;;;29.80;67.70;;;;;;6268724;22;20832;-67
2023/06/26 11:39:03;;;;;;;6.80;6.20;;;29.70;66.30;;;;;;6267796;22;20455;-67
2023/06/26 11:41:30;;;;;;;6.93;6.33;;;29.90;66.20;;;;;;6269368;22;20141;-67
2023/06/26 11:44:00;;;;;;;6.83;6.20;;;29.90;65.40;;;;;;6268617;22;20719;-67
2023/06/26 11:46:26;;;;;;;6.63;6.00;;;29.90;65.70;;;;;;6267846;22;20942;-67
2023/06/26 11:48:52;;;;;;;7.20;6.50;;;29.90;65.00;;;;;;6268489;22;20404;-67
2023/06/26 11:51:17;;;;;;;7.80;7.00;;;29.90;65.00;;;;;;6269407;22;20297;-67
2023/06/26 11:53:45;;;;;;;7.50;6.80;;;29.80;65.10;;;;;;6267777;22;20406;-68
2023/06/26 11:56:15;;;;;;;7.20;6.50;;;30.00;64.60;;;;;;6268010;22;20151;-67
2023/06/26 11:59:00;;;;;;;9.33;6.17;;;29.90;62.50;;;;;;6267960;22;20930;-67
2023/06/26 12:01:30;;;;;;;7.10;6.40;;;30.00;62.40;;;;;;6269057;22;20420;-67
2023/06/26 12:04:00;;;;;;;6.40;5.80;;;30.00;61.80;;;;;;6267683;22;20558;-67
2023/06/26 12:06:26;;;;;;;6.97;6.00;;;30.20;60.90;;;;;;6269259;22;20377;-67
2023/06/26 12:08:51;;;;;;;7.33;6.37;;;30.70;59.60;;;;;;6267278;22;20519;-67
2023/06/26 12:11:19;;;;;;;9.03;6.10;;;31.10;58.30;;;;;;6267115;22;20373;-67
2023/06/26 12:13:46;;;;;;;6.90;6.30;;;32.10;57.30;;;;;;6268681;22;20173;-67
2023/06/26 12:16:13;;;;;;;6.00;5.40;;;32.00;56.30;;;;;;6239791;22;20891;-67
2023/06/26 12:18:40;;;;;;;9.40;6.43;;;32.70;55.20;;;;;;6268236;22;20514;-67
2023/06/26 12:21:05;;;;;;;9.23;5.07;;;32.60;54.20;;;;;;6267462;22;20464;-67
2023/06/26 12:23:39;;;;;;;12.40;5.10;;;32.60;53.60;;;;;;6267891;22;20435;-67
2023/06/26 12:26:21;;;;;;;10.10;5.43;;;32.70;53.60;;;;;;6268593;22;20153;-67
2023/06/26 12:28:47;;;;;;;6.67;5.27;;;32.50;53.60;;;;;;6267394;22;20397;-67
2023/06/26 12:31:17;;;;;;;6.30;5.80;;;32.80;53.40;;;;;;6268646;22;20936;-67
2023/06/26 12:33:45;;;;;;;5.90;5.30;;;32.40;52.60;;;;;;6268446;22;20477;-67
2023/06/26 12:36:14;;;;;;;5.20;4.70;;;32.00;52.60;;;;;;6267013;22;20704;-67
2023/06/26 12:38:45;;;;;;;13.80;5.87;;;31.80;53.20;;;;;;6267618;22;20402;-67
2023/06/26 12:41:17;;;;;;;5.27;4.77;;;32.00;53.10;;;;;;6267459;22;20415;-67
2023/06/26 12:43:43;;;;;;;5.57;4.77;;;32.10;53.10;;;;;;6268704;22;20396;-66